Airfield :







YOU CAN JOIN US ON...

 
LOGIN :

Register | Disclaimer

   EN    FR    IT 

 









Legend :    VFR   Marginal VFR   IFR   Intensive IFR   Very Intensive IFR
Visi :
Ceiling :
>= 8 km
>= 3000ft
5 to 8 km
1000 to 3000 ft
1500m to 5 km
500 to 1000 ft
800 to 1500m
200 to 500 ft
< 800m
< 200 ft
Symbols :   Thunderstorms  Fog  Heavy snow  Heavy precipitations  Wind > 20 kt







- Airport Elevation : 107 ft


KBVY - Beverly Municipal

CURRENT METAR :
  • 201453Z 04008KT 4SM -RA BR BKN009 OVC013 04/02 A2988 RMK AO2 SLP117 P0006 60017 T00390022 55011

EXPIRED METARs :
  • 201438Z 05010KT 3SM -RA BR BKN009 OVC013 04/02 A2988 RMK AO2 CIG 008V011 P0004 T00390022
  • 201433Z 03008KT 2 1/2SM RA BR OVC010 04/02 A2989 RMK AO2 P0003 T00390022
  • 201353Z 05008KT 10SM -RA OVC012 04/02 A2988 RMK AO2 SLP114 P0002 T00390022
  • 201253Z 34006KT 5SM -RA BR BKN012 OVC017 02/01 A2991 RMK AO2 SLP127 P0009 T00220006
  • 201225Z 35007KT 4SM RA BR SCT004 BKN012 OVC018 02/01 A2991 RMK AO2 P0007 T00220006

TAF N/A
KZBW FIR / North America



MET'MAP, your aeronautical weather chart ! - Copyright ORBIFLY December 2007 - Disclaimer

ORBIFLY MET'MAP TEAM :

Programming & Development : Alexandra Zaïnal
Concept & Development : Baudouin d'Aumeries
Co-Development & Prog : Marc-Olivier Méhu
Technical & hardware support : Manuel Goepfert

Contact : metmap@orbifly.com




SOURCES & CREDITS :

   NOAA